Wolf Creek, MT

6:48 AM MDT on October 02, 2014 (GMT -0600)
Big Sky Country | Change Station
CLOSE
Current Station
Personal Weather Station
Location: Craig, MT
Elevation: 3566 ft
Nearby Weather Stations

Elev 3566 ft 47.13 °N, 111.90 °W | Updated 13 seconds ago

Overcast
Overcast
39.9 °F
Feels Like 36 °F
N
5.4
Wind Variable Wind from SW
Gusts 10.7 mph

Today
High -- | Low -- °F
--% Chance of Precip.
Yesterday
High -- | Low -- °F
Precip. -- in
7:27 AM 7:05 PM
First Quarter, 58% visible
Pressure 30.05 in
Visibility 10.0 miles
Clouds Overcast 7500 ft
Windchill 36 °F
Dew Point 35 °F
Humidity 81%
Rainfall 0.00 in
Snow Depth 0 in , 0 in , 0 in
UV 0 out of 12
Pollen 3.50 out of 12
Air Quality Not available.
Flu Activity Not available.
METAR KHLN 021153Z 00000KT 10SM OVC075 09/M01 A3003 RMK AO2 SLP176 70002 T00891006 10106 20072 57000

More Conditions Fewer Conditions

Pressure 30.05 in
Visibility 10.0 miles
Clouds Overcast 7500 ft
Windchill 36 °F
Dew Point 35 °F
Humidity 81%
Rainfall 0.00 in
Snow Depth 0 in , 0 in , 0 in
UV 0 out of 12
Pollen 3.50 out of 12
Air Quality Not available.
Flu Activity Not available.
METAR KHLN 021153Z 00000KT 10SM OVC075 09/M01 A3003 RMK AO2 SLP176 70002 T00891006 10106 20072 57000

More Conditions Fewer Conditions

10-Day Weather Forecast

Almanac

Astronomy

Oct. 02, 2014 Rise Set
Actual Time 7:27 AM MDT 7:05 PM MDT
Civil Twilight 6:57 AM MDT 7:35 PM MDT
Nautical Twilight 6:22 AM MDT 8:10 PM MDT
Astronomical Twilight 5:46 AM MDT 8:46 PM MDT
Moon 3:34 PM MDT 12:27 AM MDT
Length of Visible Light 12h 37m
Length of Day
11h 37m
Tomorrow will be 3m 20s shorter.
First Quarter, 58% of the Moon is Illuminated
Today
First Quarter
Oct 8
Full
Oct 15
Last Quarter
Oct 23
New
Oct 30
First Quarter

Today's Extremes

State Highs State Lows

Community

WunderPhotos

Upload Photos

1,758,226 photos uploaded!

WunderBlogs® & News

By Dr. Jeff Masters
Director of Meteorology, Weather Underground
By Kari Strenfel
Meteorologist, Weather Underground
By Christopher C. Burt
Weather Historian, Weather Underground
October 2, 2014
October 2, 2014
October 2, 2014

Nearby

Snow Depth

Station Depth Elevation
Rocky Boy 0 in 4700 ft
Copper Camp 0 in 6950 ft
Nez Perce Camp 0 in 5650 ft
Beagle Springs 0 in 8850 ft
Mount Lockhart 0 in 6400 ft

Earthquake Activity

City Distance Mag. Time & Date
No recent earthquake activity has been reported nearby.
Minimum magnitude displayed is 2.5.

Coastal Water Temperatures

Place Temperature
No Stations Reporting

Nearby Weather Stations